Time;durP1;ratioP1;P1;durP2;ratioP2;P2;SDS_P1;SDS_P2;PMS_P1;PMS_P2;Temp;Humidity;BMP_temperature;BMP_pressure;BME280_temperature;BME280_humidity;BME280_pressure;Samples;Min_cycle;Max_cycle;Signal;HPM_P1;HPM_P2
2022/06/23 00:00:59;;;;;;;14.00;5.45;;;;;;;21.18;53.21;93682.41;5087003;28;20020;-89
2022/06/23 00:03:26;;;;;;;16.63;5.43;;;;;;;21.09;53.31;93679.28;5087035;28;20021;-89
2022/06/23 00:05:58;;;;;;;11.40;5.03;;;;;;;21.04;52.97;93683.94;5086791;28;20032;-88
2022/06/23 00:08:24;;;;;;;19.60;5.43;;;;;;;21.04;53.33;93683.13;5087010;28;20219;-88
2022/06/23 00:10:57;;;;;;;15.45;6.13;;;;;;;21.01;53.31;93687.41;5086745;28;20025;-89
2022/06/23 00:13:34;;;;;;;13.95;4.88;;;;;;;21.01;53.59;93684.69;5086752;28;20307;-89
2022/06/23 00:16:00;;;;;;;16.25;5.85;;;;;;;21.02;53.22;93683.53;5086557;28;20021;-89
2022/06/23 00:18:32;;;;;;;11.52;4.72;;;;;;;21.04;53.37;93683.94;5085745;28;20028;-89
2022/06/23 00:21:02;;;;;;;11.73;5.38;;;;;;;21.02;53.83;93686.25;5086826;28;20345;-88
2022/06/23 00:23:41;;;;;;;14.30;5.63;;;;;;;21.04;53.86;93694.78;5086875;28;20021;-88
2022/06/23 00:26:12;;;;;;;16.23;6.47;;;;;;;21.05;53.82;93690.13;5086717;28;20027;-89
2022/06/23 00:28:43;;;;;;;14.27;6.60;;;;;;;21.03;53.74;93685.06;5086212;28;20096;-89
2022/06/23 00:31:24;;;;;;;17.20;5.78;;;;;;;21.06;53.76;93683.53;5086593;28;20020;-89
2022/06/23 00:33:50;;;;;;;13.05;6.10;;;;;;;21.06;53.97;93680.06;5086319;28;20028;-89
2022/06/23 00:36:35;;;;;;;15.45;5.72;;;;;;;21.04;53.89;93672.28;5086328;28;20091;-88
2022/06/23 00:39:03;;;;;;;15.73;5.75;;;;;;;21.04;54.05;93661.47;5086205;28;20028;-89
2022/06/23 00:41:34;;;;;;;11.85;6.00;;;;;;;21.01;54.57;93641.34;5086298;28;20054;-88
2022/06/23 00:44:07;;;;;;;19.02;5.55;;;;;;;21.01;55.19;93633.22;5086263;28;20024;-88
2022/06/23 00:46:41;;;;;;;14.32;5.50;;;;;;;20.99;55.73;93626.63;5085024;28;20020;-88
2022/06/23 00:49:16;;;;;;;16.63;6.32;;;;;;;20.96;56.10;93639.00;5085841;28;20086;-89
2022/06/23 00:51:47;;;;;;;17.58;5.80;;;;;;;20.90;56.23;93667.63;5086138;28;20211;-89
2022/06/23 00:54:26;;;;;;;12.55;5.60;;;;;;;20.83;55.02;93670.31;5085761;28;20028;-88
2022/06/23 00:57:20;;;;;;;13.73;5.70;;;;;;;20.78;55.15;93674.19;5086043;28;20017;-88
2022/06/23 00:59:59;;;;;;;15.85;6.15;;;;;;;20.75;55.24;93676.88;5085770;28;20017;-89
2022/06/23 01:02:34;;;;;;;9.45;5.70;;;;;;;20.67;55.32;93683.41;5085937;28;20051;-88
2022/06/23 01:05:10;;;;;;;15.20;5.70;;;;;;;20.55;55.74;93663.59;5086045;28;20219;-88
2022/06/23 01:07:41;;;;;;;15.60;6.13;;;;;;;20.44;56.14;93666.28;5085672;28;20024;-89
2022/06/23 01:10:15;;;;;;;14.48;5.40;;;;;;;20.38;56.06;93658.91;5085230;28;20028;-88
2022/06/23 01:13:00;;;;;;;12.75;4.97;;;;;;;20.36;56.21;93650.41;5085652;28;20043;-88
2022/06/23 01:15:37;;;;;;;11.65;4.90;;;;;;;20.35;56.24;93657.75;5085460;28;20036;-88
2022/06/23 01:18:13;;;;;;;10.65;5.50;;;;;;;20.37;56.37;93662.75;5085477;28;20074;-88
2022/06/23 01:20:48;;;;;;;17.83;6.65;;;;;;;20.39;56.48;93652.31;5085556;28;20016;-89
2022/06/23 01:23:32;;;;;;;14.65;5.38;;;;;;;20.38;56.53;93645.38;5085402;28;20020;-87
2022/06/23 01:26:25;;;;;;;12.38;5.38;;;;;;;20.42;56.40;93632.63;5085498;28;20016;-89
2022/06/23 01:29:00;;;;;;;14.27;5.75;;;;;;;20.41;56.06;93637.28;5085263;28;20028;-88
2022/06/23 01:31:36;;;;;;;17.42;6.88;;;;;;;20.42;55.89;93640.75;5085345;28;20027;-88
2022/06/23 01:34:41;;;;;;;12.40;5.53;;;;;;;20.44;56.14;93635.72;5085460;28;20092;-87
2022/06/23 01:37:29;;;;;;;18.15;5.05;;;;;;;20.42;56.14;93629.94;5083821;28;20051;-89
2022/06/23 01:40:12;;;;;;;12.13;5.28;;;;;;;20.39;56.46;93627.97;5085122;28;20092;-88
2022/06/23 01:42:47;;;;;;;11.43;5.43;;;;;;;20.40;56.49;93624.13;5085262;28;20077;-89
2022/06/23 01:45:26;;;;;;;15.52;6.05;;;;;;;20.40;57.13;93624.13;5085145;28;20024;-89
2022/06/23 01:47:56;;;;;;;14.93;6.03;;;;;;;20.39;57.33;93617.94;5084939;28;20341;-89
2022/06/23 01:50:30;;;;;;;16.25;5.50;;;;;;;20.39;57.06;93627.97;5085078;28;20028;-89
2022/06/23 01:53:10;;;;;;;14.82;5.80;;;;;;;20.33;57.76;93611.31;5085023;28;20031;-90
2022/06/23 01:55:59;;;;;;;12.75;6.38;;;;;;;20.32;58.27;93614.41;5085017;28;20023;-90
2022/06/23 01:58:31;;;;;;;15.02;6.20;;;;;;;20.29;58.70;93615.16;5084869;28;20084;-89
2022/06/23 02:01:02;;;;;;;19.02;6.38;;;;;;;20.26;58.56;93613.25;5083527;28;20032;-89
2022/06/23 02:03:36;;;;;;;11.60;6.10;;;;;;;20.15;58.63;93605.03;5083703;28;20275;-90
2022/06/23 02:06:20;;;;;;;11.70;6.47;;;;;;;20.10;58.89;93605.44;5085048;28;20024;-89
2022/06/23 02:09:21;;;;;;;16.05;6.03;;;;;;;20.00;59.16;93598.81;5084393;28;20084;-90
2022/06/23 02:11:52;;;;;;;17.63;7.30;;;;;;;19.96;59.22;93601.47;5080669;28;20029;-90
2022/06/23 02:14:55;;;;;;;13.52;5.95;;;;;;;19.98;59.23;93603.81;5084614;28;20074;-89
2022/06/23 02:17:33;;;;;;;15.05;6.00;;;;;;;19.93;59.55;93599.56;5084455;28;20020;-89
2022/06/23 02:20:16;;;;;;;12.52;5.80;;;;;;;19.91;60.04;93601.09;5083932;28;20021;-89
2022/06/23 02:22:46;;;;;;;12.02;6.68;;;;;;;19.88;59.96;93599.13;5083357;28;20311;-89
2022/06/23 02:25:23;;;;;;;14.63;6.35;;;;;;;19.82;60.36;93599.50;5084436;28;20307;-89
2022/06/23 02:27:54;;;;;;;11.55;5.80;;;;;;;19.79;60.37;93596.78;5084242;28;20100;-89
2022/06/23 02:30:35;;;;;;;15.07;5.82;;;;;;;19.75;61.04;93602.16;5084390;28;20028;-90
2022/06/23 02:33:27;;;;;;;12.13;6.63;;;;;;;19.71;60.71;93595.94;5084421;28;20222;-90
2022/06/23 02:36:07;;;;;;;16.33;5.85;;;;;;;19.68;61.12;93595.88;5083335;28;20142;-90
2022/06/23 02:38:38;;;;;;;12.35;5.88;;;;;;;19.63;60.88;93600.50;5084314;28;20032;-90
2022/06/23 02:41:06;;;;;;;23.52;7.03;;;;;;;19.62;60.74;93606.28;5082903;28;20036;-89
2022/06/23 02:43:36;;;;;;;14.48;6.85;;;;;;;19.59;60.90;93607.03;5082969;28;20024;-90
2022/06/23 02:46:20;;;;;;;20.88;6.63;;;;;;;19.56;60.61;93610.47;5084016;28;20107;-89
2022/06/23 02:49:01;;;;;;;11.27;5.40;;;;;;;19.51;60.71;93600.03;5083492;28;20036;-89
2022/06/23 02:52:01;;;;;;;18.45;6.38;;;;;;;19.53;60.57;93608.53;5083162;28;20290;-89
2022/06/23 02:55:04;;;;;;;13.07;5.90;;;;;;;19.52;60.98;93612.38;5065606;28;20079;-89
2022/06/23 02:57:51;;;;;;;12.57;6.72;;;;;;;19.48;61.31;93614.28;5084532;28;20024;-89
2022/06/23 03:00:32;;;;;;;14.95;5.93;;;;;;;19.41;61.59;93610.38;5084200;28;20033;-89
2022/06/23 03:03:09;;;;;;;13.27;6.20;;;;;;;19.40;61.92;93614.25;5082610;28;20020;-90
2022/06/23 03:05:58;;;;;;;16.63;7.15;;;;;;;19.39;61.68;93625.41;5083843;28;20095;-90
2022/06/23 03:08:29;;;;;;;12.27;6.05;;;;;;;19.35;62.05;93619.22;5083651;28;20091;-90
2022/06/23 03:11:14;;;;;;;15.30;7.07;;;;;;;19.35;62.18;93628.09;5083541;28;20038;-89
2022/06/23 03:13:47;;;;;;;15.32;6.85;;;;;;;19.35;62.02;93624.63;5083707;28;20297;-90
2022/06/23 03:16:12;;;;;;;16.85;6.10;;;;;;;19.36;62.29;93635.06;5083589;28;20028;-89
2022/06/23 03:18:47;;;;;;;17.17;7.00;;;;;;;19.36;62.37;93632.34;5083544;28;20219;-90
2022/06/23 03:21:20;;;;;;;13.52;6.47;;;;;;;19.37;62.28;93633.91;5083603;28;20024;-89
2022/06/23 03:23:55;;;;;;;14.55;6.88;;;;;;;19.39;62.08;93630.81;5083660;28;20020;-90
2022/06/23 03:26:32;;;;;;;16.20;7.13;;;;;;;19.35;62.34;93632.72;5083449;28;20028;-91
2022/06/23 03:29:22;;;;;;;14.80;7.38;;;;;;;19.30;62.19;93617.63;5083453;28;20049;-90
2022/06/23 03:32:21;;;;;;;14.50;6.25;;;;;;;19.30;62.05;93606.06;5082034;28;20029;-89
2022/06/23 03:35:17;;;;;;;15.68;6.97;;;;;;;19.25;62.44;93607.16;5083463;28;20257;-90
2022/06/23 03:37:55;;;;;;;11.25;5.65;;;;;;;19.27;62.02;93604.88;5083269;28;20032;-90
2022/06/23 03:44:04;;;;;;;18.05;6.18;;;;;;;19.34;61.83;93596.81;5083335;28;20019;-90
2022/06/23 03:46:36;;;;;;;17.02;6.55;;;;;;;19.35;62.23;93595.66;5083069;28;20016;-91
2022/06/23 03:49:35;;;;;;;18.15;7.80;;;;;;;19.38;62.23;93589.53;5083086;28;20036;-90
2022/06/23 03:52:04;;;;;;;17.70;6.57;;;;;;;19.43;61.76;93597.25;5083244;28;20028;-90
2022/06/23 03:54:54;;;;;;;13.45;7.43;;;;;;;19.48;61.93;93593.47;5083183;28;20326;-90
2022/06/23 03:57:38;;;;;;;16.92;7.20;;;;;;;19.55;62.08;93609.72;5083345;28;20100;-90
2022/06/23 04:00:22;;;;;;;15.32;6.75;;;;;;;19.61;62.11;93604.72;5083323;28;20021;-90
2022/06/23 04:03:19;;;;;;;15.13;7.18;;;;;;;19.64;62.44;93607.47;5083052;28;20028;-90
2022/06/23 04:06:08;;;;;;;16.77;7.25;;;;;;;19.75;62.63;93607.56;5082458;28;20032;-90
2022/06/23 04:08:44;;;;;;;14.68;8.00;;;;;;;19.83;61.39;93608.38;5083083;28;20066;-91
2022/06/23 04:14:06;;;;;;;14.88;7.97;;;;;;;19.92;60.90;93624.25;5083187;28;20214;-91
2022/06/23 04:16:33;;;;;;;16.48;7.25;;;;;;;19.99;61.03;93618.91;5082934;28;20020;-90
2022/06/23 04:19:06;;;;;;;14.88;7.50;;;;;;;20.06;60.72;93624.34;5083079;28;20013;-90
2022/06/23 04:21:32;;;;;;;21.27;9.60;;;;;;;20.14;61.24;93627.88;5082777;28;20044;-89
2022/06/23 04:24:05;;;;;;;19.58;8.88;;;;;;;20.20;61.21;93627.13;5083001;28;20215;-90
2022/06/23 04:26:38;;;;;;;18.60;8.00;;;;;;;20.25;61.74;93631.38;5082757;28;20043;-91
2022/06/23 04:29:09;;;;;;;;;;;;;;;20.29;61.16;93634.09;5083208;28;20024;-90
2022/06/23 04:31:40;;;;;;;16.90;8.85;;;;;;;20.27;61.34;93633.72;5082899;28;19967;-90
2022/06/23 04:34:12;;;;;;;20.03;8.80;;;;;;;20.34;62.25;93620.22;5081642;28;20020;-90
2022/06/23 04:36:43;;;;;;;16.48;8.23;;;;;;;20.40;62.11;93619.47;5081890;28;20496;-89
2022/06/23 04:39:34;;;;;;;17.80;8.50;;;;;;;20.50;61.63;93609.84;5082716;28;20008;-90
2022/06/23 04:42:10;;;;;;;16.38;7.53;;;;;;;20.57;61.43;93601.72;5082584;28;20028;-90
2022/06/23 04:44:47;;;;;;;13.65;6.90;;;;;;;20.67;61.31;93611.06;5083534;28;20028;-90
2022/06/23 04:47:33;;;;;;;18.15;8.38;;;;;;;20.79;60.35;93612.66;5085355;28;20044;-90
2022/06/23 04:50:30;;;;;;;19.20;9.23;;;;;;;20.88;59.89;93609.56;5085975;28;20226;-90
2022/06/23 04:52:57;;;;;;;17.92;8.57;;;;;;;20.99;59.08;93611.16;5086309;28;20020;-90
2022/06/23 04:55:28;;;;;;;11.40;7.45;;;;;;;21.03;59.80;93606.50;5086111;28;20034;-90
2022/06/23 04:58:22;;;;;;;18.27;8.05;;;;;;;21.08;59.33;93623.53;5086148;28;20025;-90
2022/06/23 05:00:53;;;;;;;18.42;8.45;;;;;;;21.09;59.10;93620.44;5085191;28;20028;-90
2022/06/23 05:03:30;;;;;;;18.73;8.48;;;;;;;21.12;58.11;93608.81;5086041;28;20021;-90
2022/06/23 05:06:08;;;;;;;14.93;7.95;;;;;;;21.23;58.06;93609.63;5085993;28;20017;-90
2022/06/23 05:08:38;;;;;;;16.13;8.25;;;;;;;21.29;57.47;93596.47;5085988;28;20043;-90
2022/06/23 05:11:14;;;;;;;20.33;8.35;;;;;;;21.40;57.24;93602.66;5086113;28;21133;-90
2022/06/23 05:13:46;;;;;;;15.02;7.45;;;;;;;21.52;57.71;93603.47;5085869;28;20031;-90
2022/06/23 05:16:24;;;;;;;19.20;8.18;;;;;;;21.55;56.77;93597.25;5085853;28;20103;-90
2022/06/23 05:18:52;;;;;;;19.63;7.93;;;;;;;21.72;57.19;93599.16;5084800;28;20085;-90
2022/06/23 05:21:23;;;;;;;17.02;8.50;;;;;;;21.86;56.64;93590.22;5085951;28;20215;-91
2022/06/23 05:24:04;;;;;;;24.70;9.83;;;;;;;21.96;56.63;93621.19;5085637;28;20042;-90
2022/06/23 05:26:37;;;;;;;17.80;9.20;;;;;;;22.04;56.57;93615.38;5085536;28;20017;-91
2022/06/23 05:29:17;;;;;;;21.98;8.00;;;;;;;22.06;56.41;93598.69;5085438;28;20074;-91
2022/06/23 05:31:45;;;;;;;20.17;8.63;;;;;;;22.11;55.49;93579.31;5085553;28;20017;-91
2022/06/23 05:34:22;;;;;;;26.02;8.20;;;;;;;22.23;55.59;93589.75;5085511;28;20024;-92
2022/06/23 05:36:56;;;;;;;20.58;7.32;;;;;;;22.39;55.23;93619.19;5085598;28;20025;-90
2022/06/23 05:39:28;;;;;;;15.90;7.80;;;;;;;22.49;54.04;93633.88;5085447;28;20012;-91
2022/06/23 05:41:58;;;;;;;;;;;;;;;22.52;54.89;93624.94;5085526;28;20047;-90
2022/06/23 05:44:30;;;;;;;16.92;7.20;;;;;;;22.47;55.17;93584.63;5084245;28;19912;-90
2022/06/23 05:46:58;;;;;;;;;;;;;;;22.48;55.26;93594.31;5085737;28;20032;-90
2022/06/23 05:49:30;;;;;;;21.88;9.77;;;;;;;22.33;56.20;93628.13;5085091;28;20191;-90
2022/06/23 05:52:02;;;;;;;16.58;9.30;;;;;;;22.23;56.58;93652.19;5085025;28;20054;-90
2022/06/23 05:54:33;;;;;;;23.80;11.18;;;;;;;22.05;56.95;93735.56;5084101;28;20023;-90
2022/06/23 05:57:06;;;;;;;17.02;9.48;;;;;;;21.37;59.89;93966.69;5085279;28;20052;-91
2022/06/23 06:00:04;;;;;;;24.73;9.27;;;;;;;19.15;68.89;94040.09;5085160;28;20053;-91
2022/06/23 06:02:47;;;;;;;31.75;11.05;;;;;;;17.89;76.83;93940.00;5086073;28;20048;-89
2022/06/23 06:05:35;;;;;;;21.90;6.85;;;;;;;17.12;78.35;93876.94;5084893;28;20098;-90
2022/06/23 06:08:05;;;;;;;19.48;8.85;;;;;;;16.12;84.79;93923.81;5085194;28;20044;-92
2022/06/23 06:10:34;;;;;;;14.00;5.68;;;;;;;15.79;85.61;93895.34;5085071;28;20028;-89
2022/06/23 06:13:02;;;;;;;16.13;7.28;;;;;;;15.63;88.63;93892.59;5083692;28;20246;-92
2022/06/23 06:15:39;;;;;;;18.33;8.60;;;;;;;15.60;91.08;93856.47;5085143;28;20025;-91
2022/06/23 06:18:27;;;;;;;20.20;8.85;;;;;;;15.65;93.50;93836.63;5085061;28;20105;-93
2022/06/23 06:20:55;;;;;;;16.63;8.38;;;;;;;15.68;94.62;93829.78;5084870;28;20037;-91
2022/06/23 06:23:42;;;;;;;18.50;8.65;;;;;;;15.76;95.90;93826.97;5083947;28;20016;-92
2022/06/23 06:26:14;;;;;;;17.30;10.10;;;;;;;15.90;97.14;93809.63;5084893;28;20035;-91
2022/06/23 06:28:39;;;;;;;;;;;;;;;16.09;98.38;93785.50;5085255;28;20106;-92
2022/06/23 06:31:13;;;;;;;19.20;8.05;;;;;;;16.23;99.40;93783.13;5084949;28;19983;-93
2022/06/23 06:33:57;;;;;;;14.75;6.10;;;;;;;16.36;99.00;93773.03;5084795;28;20024;-94
2022/06/23 06:36:34;;;;;;;25.33;6.45;;;;;;;16.44;98.16;93766.69;5084634;28;20017;-93
2022/06/23 06:39:22;;;;;;;23.35;6.82;;;;;;;16.56;97.45;93781.13;5084640;28;20323;-92
2022/06/23 06:41:57;;;;;;;32.35;7.80;;;;;;;16.61;96.37;93781.66;5073885;28;20040;-94
2022/06/23 06:44:23;;;;;;;12.23;4.75;;;;;;;16.60;95.24;93763.94;5084760;28;20024;-90
2022/06/23 06:46:53;;;;;;;6.90;4.03;;;;;;;16.55;93.55;93745.38;5083351;28;20361;-89
2022/06/23 06:49:22;;;;;;;8.90;4.00;;;;;;;16.57;92.73;93731.59;5084446;28;20020;-90
2022/06/23 06:51:50;;;;;;;8.10;4.63;;;;;;;16.65;92.01;93722.53;5084136;28;20319;-91
2022/06/23 06:54:26;;;;;;;9.05;4.53;;;;;;;16.70;92.05;93705.31;5084528;28;20036;-91
2022/06/23 06:56:56;;;;;;;5.68;3.22;;;;;;;16.78;92.26;93715.06;5084341;28;20023;-90
2022/06/23 06:59:33;;;;;;;9.10;4.07;;;;;;;16.91;92.04;93716.50;5084479;28;20241;-90
2022/06/23 07:02:11;;;;;;;6.65;4.43;;;;;;;17.06;92.51;93728.31;5084216;28;20095;-91
2022/06/23 07:04:46;;;;;;;16.10;4.70;;;;;;;17.22;93.06;93725.53;5084166;28;20319;-90
2022/06/23 07:07:20;;;;;;;13.52;5.07;;;;;;;17.39;92.62;93722.34;5082776;28;20028;-92
2022/06/23 07:09:54;;;;;;;15.43;6.22;;;;;;;17.60;91.63;93729.25;5083860;28;20043;-93
2022/06/23 07:12:30;;;;;;;13.45;4.90;;;;;;;17.70;91.03;93734.03;5084080;28;20028;-92
2022/06/23 07:15:30;;;;;;;13.88;4.18;;;;;;;17.89;90.70;93729.72;5083892;28;20032;-92
2022/06/23 07:18:06;;;;;;;11.20;4.60;;;;;;;18.00;89.81;93741.44;5082914;28;20016;-92
2022/06/23 07:20:42;;;;;;;9.70;3.92;;;;;;;18.10;89.46;93734.66;5083901;28;20024;-91
2022/06/23 07:23:22;;;;;;;7.78;3.20;;;;;;;18.20;84.05;93740.19;5083806;28;20021;-91
2022/06/23 07:26:13;;;;;;;9.40;3.55;;;;;;;18.22;83.54;93743.31;5084095;28;20024;-91
2022/06/23 07:28:45;;;;;;;12.57;4.88;;;;;;;18.14;84.69;93757.06;5083279;28;20062;-91
2022/06/23 07:31:19;;;;;;;8.65;4.40;;;;;;;18.07;85.09;93763.13;5085045;28;20057;-90
2022/06/23 07:33:50;;;;;;;8.38;4.35;;;;;;;18.09;86.22;93782.41;5087761;28;20027;-90
2022/06/23 07:36:44;;;;;;;6.68;4.50;;;;;;;18.12;85.36;93775.53;5085455;28;20066;-90
2022/06/23 07:39:18;;;;;;;9.82;4.13;;;;;;;18.31;86.44;93771.94;5085118;28;20020;-91
2022/06/23 07:42:05;;;;;;;15.52;4.85;;;;;;;18.42;84.39;93791.78;5083909;28;20031;-92
2022/06/23 07:44:49;;;;;;;16.35;6.13;;;;;;;18.49;81.09;93793.78;5084628;28;20146;-90
2022/06/23 07:47:17;;;;;;;11.05;4.47;;;;;;;18.60;77.84;93806.28;5085732;28;20231;-91
2022/06/23 07:49:43;;;;;;;13.15;5.07;;;;;;;18.63;79.45;93796.69;5085576;28;20040;-92
2022/06/23 07:52:15;;;;;;;16.65;6.07;;;;;;;18.71;80.33;93801.03;5085768;28;20020;-91
2022/06/23 07:54:42;;;;;;;16.88;7.40;;;;;;;18.82;79.85;93791.16;5085839;28;20044;-91
2022/06/23 07:57:10;;;;;;;10.50;6.30;;;;;;;18.97;76.39;93807.53;5085649;28;20025;-91
2022/06/23 07:59:46;;;;;;;16.70;6.28;;;;;;;19.03;78.09;93806.88;5085170;28;20024;-90
2022/06/23 08:02:25;;;;;;;13.23;6.38;;;;;;;19.11;77.76;93813.16;5084975;28;20024;-90
2022/06/23 08:05:07;;;;;;;16.67;9.05;;;;;;;19.17;77.50;93802.75;5083243;28;20040;-91
2022/06/23 08:07:34;;;;;;;13.25;8.15;;;;;;;19.19;76.92;93795.06;5085210;28;20029;-90
2022/06/23 08:10:05;;;;;;;15.55;8.65;;;;;;;19.28;75.64;93798.28;5084308;28;20074;-89
2022/06/23 08:12:54;;;;;;;23.60;9.48;;;;;;;19.31;75.64;93799.44;5083952;28;20028;-90
2022/06/23 08:18:34;;;;;;;16.45;8.95;;;;;;;19.38;77.13;93804.94;5084030;28;20019;-89
2022/06/23 08:21:15;;;;;;;18.48;9.27;;;;;;;19.40;75.08;93789.13;5087564;28;20043;-89
2022/06/23 08:23:48;;;;;;;15.27;8.20;;;;;;;19.57;73.71;93772.31;5087870;28;20095;-91
2022/06/23 08:26:16;;;;;;;20.25;8.57;;;;;;;19.87;74.96;93770.69;5087669;28;20138;-89
2022/06/23 08:28:43;;;;;;;17.75;8.98;;;;;;;20.12;73.95;93782.44;5087919;28;20024;-91
2022/06/23 08:31:09;;;;;;;19.30;9.40;;;;;;;20.34;73.58;93769.09;5086399;28;20066;-91
2022/06/23 08:33:35;;;;;;;29.02;8.73;;;;;;;20.64;72.10;93764.25;5087744;28;20036;-92
2022/06/23 08:36:11;;;;;;;19.85;9.00;;;;;;;20.97;72.83;93770.59;5087869;28;20236;-91
2022/06/23 08:39:03;;;;;;;25.45;8.35;;;;;;;21.27;70.80;93764.13;5088149;28;20017;-92
2022/06/23 08:42:05;;;;;;;16.05;7.75;;;;;;;21.45;68.71;93772.31;5087920;28;20025;-91
2022/06/23 08:44:48;;;;;;;13.60;6.50;;;;;;;21.62;68.17;93777.00;5086101;28;20063;-91
2022/06/23 08:47:45;;;;;;;14.73;7.03;;;;;;;21.96;67.53;93776.66;5087680;28;20279;-92
2022/06/23 08:50:29;;;;;;;21.67;6.75;;;;;;;22.21;65.89;93768.50;5086820;28;20032;-92
2022/06/23 08:53:32;;;;;;;10.07;6.60;;;;;;;22.36;62.76;93760.38;5088002;28;20044;-93
2022/06/23 08:56:15;;;;;;;15.00;5.72;;;;;;;22.53;62.55;93764.22;5087689;28;20023;-92
2022/06/23 08:58:50;;;;;;;19.27;6.88;;;;;;;22.72;61.37;93757.59;5088171;28;20024;-92
2022/06/23 09:01:49;;;;;;;14.93;6.80;;;;;;;22.92;62.32;93750.53;5087882;28;20029;-92
2022/06/23 09:04:44;;;;;;;14.80;6.45;;;;;;;23.11;60.53;93754.72;5088476;28;20066;-92
2022/06/23 09:07:18;;;;;;;16.48;6.30;;;;;;;23.20;60.96;93757.00;5088008;28;20066;-94
2022/06/23 09:09:58;;;;;;;15.07;5.68;;;;;;;23.42;59.27;93765.84;5087313;28;20054;-93
2022/06/23 09:13:05;;;;;;;17.15;6.80;;;;;;;23.67;58.18;93749.38;5087937;28;20025;-93
2022/06/23 09:16:01;;;;;;;14.63;6.32;;;;;;;23.73;56.69;93747.78;5088149;28;20023;-93
2022/06/23 09:18:58;;;;;;;15.48;6.70;;;;;;;23.57;56.04;93755.66;5088082;28;20024;-94
2022/06/23 09:22:25;;;;;;;17.17;7.07;;;;;;;23.59;58.40;93756.03;5087430;28;20082;-94
2022/06/23 09:25:13;;;;;;;16.80;6.40;;;;;;;23.62;57.03;93738.91;5066175;28;20048;-94
2022/06/23 09:28:10;;;;;;;14.82;6.57;;;;;;;23.72;57.73;93740.03;5073496;28;20032;-93
2022/06/23 09:31:04;;;;;;;15.25;5.95;;;;;;;23.82;58.45;93728.31;5087971;28;20037;-93
2022/06/23 09:34:27;;;;;;;14.20;5.82;;;;;;;23.99;57.33;93732.81;5060029;28;20101;-93
2022/06/23 09:37:18;;;;;;;18.00;7.38;;;;;;;24.11;57.29;93731.56;5076058;28;20081;-93
2022/06/23 09:40:20;;;;;;;18.08;6.95;;;;;;;24.20;57.34;93715.53;5088141;28;20051;-92
2022/06/23 09:43:38;;;;;;;17.45;6.68;;;;;;;24.34;56.54;93722.00;5056911;28;20062;-93
2022/06/23 09:50:00;;;;;;;14.15;7.28;;;;;;;24.31;55.68;93726.31;5064720;28;20036;-94
2022/06/23 09:52:59;;;;;;;14.20;8.07;;;;;;;24.11;53.97;93712.50;5087010;28;20080;-95
2022/06/23 09:56:00;;;;;;;;;;;;;;;;;;;;;
2022/06/23 09:58:47;;;;;;;18.37;7.90;;;;;;;23.74;56.30;93715.91;5079808;28;20056;-93
2022/06/23 10:01:47;;;;;;;16.48;6.57;;;;;;;23.73;56.78;93715.13;5069667;28;20266;-94
2022/06/23 10:04:59;;;;;;;11.38;7.18;;;;;;;23.63;56.41;93711.31;5086817;28;20024;-94
2022/06/23 10:11:01;;;;;;;12.43;6.38;;;;;;;23.71;57.09;93719.41;5075820;28;20036;-94
2022/06/23 10:14:03;;;;;;;15.15;6.97;;;;;;;23.71;58.83;93716.69;5086582;28;20227;-94
2022/06/23 10:16:53;;;;;;;18.70;7.53;;;;;;;23.78;57.63;93727.56;5047373;28;20036;-94
2022/06/23 10:19:40;;;;;;;17.50;7.70;;;;;;;23.74;57.47;93719.41;5086629;28;20031;-92
2022/06/23 10:22:55;;;;;;;15.68;7.78;;;;;;;23.70;58.05;93728.75;5086430;28;20083;-93
2022/06/23 10:26:11;;;;;;;18.27;8.38;;;;;;;23.52;57.88;93720.72;5055001;28;20036;-92
2022/06/23 10:28:55;;;;;;;;;;;;;;;;;;;;;
2022/06/23 10:32:10;;;;;;;18.63;8.90;;;;;;;23.61;59.34;93712.88;5082989;28;20134;-93
2022/06/23 10:35:05;;;;;;;;;;;;;;;;;;;;;
2022/06/23 10:38:00;;;;;;;18.75;8.70;;;;;;;23.78;58.27;93690.22;5070646;28;20286;-92
2022/06/23 10:40:34;;;;;;;25.58;10.70;;;;;;;23.82;57.03;93679.31;5085583;28;20032;-93
2022/06/23 10:43:44;;;;;;;20.52;9.70;;;;;;;23.90;56.76;93686.25;5084962;28;20024;-93
2022/06/23 10:46:10;;;;;;;19.55;9.43;;;;;;;24.11;57.50;93679.84;5007828;28;20025;-92
2022/06/23 10:52:23;;;;;;;;;;;;;;;;;;;;;
2022/06/23 10:55:40;;;;;;;18.48;8.75;;;;;;;24.46;57.70;93663.53;5080144;28;20067;-91
2022/06/23 10:58:34;;;;;;;19.48;9.13;;;;;;;24.58;55.82;93673.94;4984551;28;20026;-92
2022/06/23 11:01:30;;;;;;;;;;;;;;;;;;;;;
2022/06/23 11:04:07;;;;;;;18.70;8.02;;;;;;;24.79;57.96;93672.91;5066744;28;20055;-92
2022/06/23 11:07:05;;;;;;;14.82;7.82;;;;;;;24.94;56.09;93668.81;5068488;28;20091;-93
2022/06/23 11:09:48;;;;;;;20.85;6.88;;;;;;;25.06;55.12;93659.31;5086330;28;20099;-93
2022/06/23 11:12:45;;;;;;;17.45;8.55;;;;;;;25.19;54.11;93663.03;5088546;28;20375;-92
2022/06/23 11:15:44;;;;;;;18.50;7.82;;;;;;;25.33;53.23;93666.78;5065603;28;20036;-93
2022/06/23 11:18:35;;;;;;;20.77;7.90;;;;;;;25.37;53.42;93668.25;5076415;28;20040;-93
2022/06/23 11:21:12;;;;;;;19.80;6.10;;;;;;;25.42;54.88;93659.63;5086052;28;20028;-93
2022/06/23 11:24:01;;;;;;;13.07;7.28;;;;;;;25.58;54.43;93667.16;5085592;28;20125;-92
2022/06/23 11:26:58;;;;;;;20.13;7.95;;;;;;;25.72;53.00;93666.16;5085711;28;20029;-91
2022/06/23 11:30:10;;;;;;;;;;;;;;;;;;;;;
2022/06/23 11:33:03;;;;;;;13.13;6.40;;;;;;;25.89;52.54;93680.72;5080225;28;20068;-92
2022/06/23 11:35:52;;;;;;;24.38;6.07;;;;;;;25.93;52.42;93691.59;5085059;28;20036;-92
2022/06/23 11:38:54;;;;;;;;;;;;;;;;;;;;;
2022/06/23 11:41:57;;;;;;;23.58;6.75;;;;;;;25.96;53.45;93688.81;5078874;28;20068;-94
2022/06/23 11:44:53;;;;;;;8.45;5.07;;;;;;;26.00;51.31;93696.94;5084831;28;20078;-94
2022/06/23 11:47:34;;;;;;;11.77;4.28;;;;;;;25.71;51.67;93689.19;5084836;28;20340;-93
2022/06/23 11:50:28;;;;;;;14.75;4.95;;;;;;;25.59;52.00;93689.78;5067592;28;20335;-93
2022/06/23 11:52:57;;;;;;;14.52;4.75;;;;;;;25.49;52.67;93715.25;5065900;28;20067;-91
2022/06/23 11:55:56;;;;;;;15.35;4.50;;;;;;;25.26;50.76;93700.38;5083870;28;20434;-91
2022/06/23 11:58:47;;;;;;;17.67;4.43;;;;;;;25.24;52.60;93702.75;5079304;28;20024;-91
2022/06/23 12:01:15;;;;;;;15.13;4.70;;;;;;;25.32;52.54;93703.41;5084342;28;20028;-93
2022/06/23 12:03:43;;;;;;;18.50;4.20;;;;;;;25.33;52.37;93710.41;5084429;28;20031;-91
2022/06/23 12:06:42;;;;;;;12.90;4.50;;;;;;;25.25;50.25;93685.19;5083876;28;20020;-89
2022/06/23 12:09:38;;;;;;;11.80;4.00;;;;;;;25.31;51.66;93688.22;5083331;28;20021;-89
2022/06/23 12:12:08;;;;;;;6.75;3.80;;;;;;;25.40;50.85;93675.63;5083272;28;20055;-89
2022/06/23 12:14:35;;;;;;;18.55;4.80;;;;;;;25.43;49.43;93677.50;5083557;28;20025;-90
2022/06/23 12:17:19;;;;;;;14.98;4.07;;;;;;;25.53;48.73;93661.41;5083495;28;20024;-91
2022/06/23 12:19:56;;;;;;;15.05;4.15;;;;;;;25.51;50.42;93672.72;5083456;28;20245;-90
2022/06/23 12:22:30;;;;;;;11.30;4.35;;;;;;;25.12;48.59;93676.78;5083331;28;20048;-90
2022/06/23 12:25:10;;;;;;;11.10;4.28;;;;;;;25.06;50.81;93670.22;5083579;28;20028;-90
2022/06/23 12:28:01;;;;;;;12.52;4.32;;;;;;;24.97;51.02;93668.00;5083289;28;20215;-90
2022/06/23 12:30:35;;;;;;;19.52;4.82;;;;;;;25.00;50.99;93667.19;5082682;28;20106;-90
2022/06/23 12:33:17;;;;;;;17.15;5.25;;;;;;;25.18;49.48;93666.19;5083449;28;20030;-90
2022/06/23 12:35:57;;;;;;;20.73;5.20;;;;;;;25.37;50.49;93662.03;5082867;28;20066;-89
2022/06/23 12:38:41;;;;;;;15.73;4.70;;;;;;;25.29;50.45;93677.72;5083446;28;20028;-90
2022/06/23 12:41:42;;;;;;;15.93;5.32;;;;;;;25.31;51.15;93669.13;5083454;28;20032;-91
2022/06/23 12:44:29;;;;;;;15.98;4.85;;;;;;;25.40;48.99;93658.47;5046757;28;20036;-91
2022/06/23 12:47:11;;;;;;;16.33;4.07;;;;;;;25.38;49.00;93675.25;5083591;28;20103;-90
2022/06/23 12:49:58;;;;;;;17.20;4.35;;;;;;;25.37;48.29;93673.72;5065562;28;20043;-91
2022/06/23 12:52:37;;;;;;;15.02;5.03;;;;;;;25.41;49.10;93666.25;5083083;28;20334;-90
2022/06/23 12:55:27;;;;;;;16.30;5.05;;;;;;;25.32;48.41;93652.38;5083208;28;20021;-89
2022/06/23 12:57:59;;;;;;;21.80;5.43;;;;;;;25.48;48.72;93661.88;5083011;28;20020;-89
2022/06/23 13:00:43;;;;;;;;;;;;;;;25.78;50.13;93661.00;5083594;28;20091;-90
2022/06/23 13:03:27;;;;;;;15.30;4.93;;;;;;;25.85;49.13;93668.28;5082776;28;19954;-89